sensor_id;sensor_type;location;lat;lon;timestamp;temperature;humidity
23499;DHT22;11926;48.120;11.562;2022-10-31T00:00:06;12.50;91.90
23499;DHT22;11926;48.120;11.562;2022-10-31T00:02:56;12.40;91.90
23499;DHT22;11926;48.120;11.562;2022-10-31T00:05:46;12.40;91.90
23499;DHT22;11926;48.120;11.562;2022-10-31T00:08:33;12.40;91.90
23499;DHT22;11926;48.120;11.562;2022-10-31T00:11:21;12.30;91.90
23499;DHT22;11926;48.120;11.562;2022-10-31T00:14:09;12.30;91.90
23499;DHT22;11926;48.120;11.562;2022-10-31T00:16:56;12.30;91.80
23499;DHT22;11926;48.120;11.562;2022-10-31T00:19:44;12.20;91.80
23499;DHT22;11926;48.120;11.562;2022-10-31T00:22:31;12.30;91.80
23499;DHT22;11926;48.120;11.562;2022-10-31T00:25:18;12.20;91.80
23499;DHT22;11926;48.120;11.562;2022-10-31T00:28:07;12.20;91.80
23499;DHT22;11926;48.120;11.562;2022-10-31T00:30:58;12.20;91.80
23499;DHT22;11926;48.120;11.562;2022-10-31T00:33:45;12.20;91.90
23499;DHT22;11926;48.120;11.562;2022-10-31T00:36:35;12.10;92.20
23499;DHT22;11926;48.120;11.562;2022-10-31T00:39:22;12.10;91.90
23499;DHT22;11926;48.120;11.562;2022-10-31T00:42:09;12.10;91.90
23499;DHT22;11926;48.120;11.562;2022-10-31T00:44:56;12.10;91.90
23499;DHT22;11926;48.120;11.562;2022-10-31T00:47:44;12.00;91.90
23499;DHT22;11926;48.120;11.562;2022-10-31T00:50:32;12.00;91.90
23499;DHT22;11926;48.120;11.562;2022-10-31T00:53:19;12.00;92.00
23499;DHT22;11926;48.120;11.562;2022-10-31T00:56:07;11.90;92.00
23499;DHT22;11926;48.120;11.562;2022-10-31T00:58:54;11.90;92.00
23499;DHT22;11926;48.120;11.562;2022-10-31T01:01:41;11.90;92.10
23499;DHT22;11926;48.120;11.562;2022-10-31T01:04:30;11.80;92.00
23499;DHT22;11926;48.120;11.562;2022-10-31T01:07:17;11.80;92.00
23499;DHT22;11926;48.120;11.562;2022-10-31T01:10:05;11.80;92.10
23499;DHT22;11926;48.120;11.562;2022-10-31T01:12:52;11.80;92.10
23499;DHT22;11926;48.120;11.562;2022-10-31T01:15:40;11.70;92.20
23499;DHT22;11926;48.120;11.562;2022-10-31T01:18:28;11.70;92.20
23499;DHT22;11926;48.120;11.562;2022-10-31T01:21:18;11.70;92.30
23499;DHT22;11926;48.120;11.562;2022-10-31T01:24:08;11.70;92.30
23499;DHT22;11926;48.120;11.562;2022-10-31T01:26:56;11.70;92.30
23499;DHT22;11926;48.120;11.562;2022-10-31T01:29:43;11.60;92.20
23499;DHT22;11926;48.120;11.562;2022-10-31T01:32:30;11.60;92.20
23499;DHT22;11926;48.120;11.562;2022-10-31T01:35:18;11.60;92.30
23499;DHT22;11926;48.120;11.562;2022-10-31T01:38:07;11.50;92.30
23499;DHT22;11926;48.120;11.562;2022-10-31T01:40:53;11.50;92.40
23499;DHT22;11926;48.120;11.562;2022-10-31T01:43:47;11.50;92.30
23499;DHT22;11926;48.120;11.562;2022-10-31T01:46:38;11.50;92.40
23499;DHT22;11926;48.120;11.562;2022-10-31T01:49:33;11.50;92.40
23499;DHT22;11926;48.120;11.562;2022-10-31T01:52:24;11.50;92.40
23499;DHT22;11926;48.120;11.562;2022-10-31T01:55:15;11.50;92.40
23499;DHT22;11926;48.120;11.562;2022-10-31T01:58:07;11.40;92.40
23499;DHT22;11926;48.120;11.562;2022-10-31T02:00:59;11.40;92.40
23499;DHT22;11926;48.120;11.562;2022-10-31T02:03:55;11.40;92.30
23499;DHT22;11926;48.120;11.562;2022-10-31T02:06:46;11.40;92.40
23499;DHT22;11926;48.120;11.562;2022-10-31T02:09:37;11.40;92.50
23499;DHT22;11926;48.120;11.562;2022-10-31T02:12:25;11.30;92.50
23499;DHT22;11926;48.120;11.562;2022-10-31T02:15:16;11.30;92.50
23499;DHT22;11926;48.120;11.562;2022-10-31T02:18:04;11.30;92.50
23499;DHT22;11926;48.120;11.562;2022-10-31T02:21:00;11.30;92.50
23499;DHT22;11926;48.120;11.562;2022-10-31T02:24:09;11.20;92.50
23499;DHT22;11926;48.120;11.562;2022-10-31T02:27:07;11.20;92.50
23499;DHT22;11926;48.120;11.562;2022-10-31T02:30:06;11.20;92.50
23499;DHT22;11926;48.120;11.562;2022-10-31T02:33:10;11.20;92.60
23499;DHT22;11926;48.120;11.562;2022-10-31T02:36:08;11.20;92.60
23499;DHT22;11926;48.120;11.562;2022-10-31T02:39:06;11.10;92.60
23499;DHT22;11926;48.120;11.562;2022-10-31T02:42:04;11.20;92.60
23499;DHT22;11926;48.120;11.562;2022-10-31T02:45:03;11.10;92.70
23499;DHT22;11926;48.120;11.562;2022-10-31T02:47:55;11.10;92.60
23499;DHT22;11926;48.120;11.562;2022-10-31T02:50:52;11.10;92.60
23499;DHT22;11926;48.120;11.562;2022-10-31T02:53:40;11.10;92.60
23499;DHT22;11926;48.120;11.562;2022-10-31T02:56:28;11.00;92.60
23499;DHT22;11926;48.120;11.562;2022-10-31T02:59:15;11.00;92.70
23499;DHT22;11926;48.120;11.562;2022-10-31T03:02:11;11.00;92.70
23499;DHT22;11926;48.120;11.562;2022-10-31T03:05:14;11.00;92.70
23499;DHT22;11926;48.120;11.562;2022-10-31T03:08:13;11.00;92.70
23499;DHT22;11926;48.120;11.562;2022-10-31T03:11:03;10.90;92.70
23499;DHT22;11926;48.120;11.562;2022-10-31T03:13:57;10.90;92.70
23499;DHT22;11926;48.120;11.562;2022-10-31T03:16:49;10.90;92.70
23499;DHT22;11926;48.120;11.562;2022-10-31T03:19:41;10.90;92.70
23499;DHT22;11926;48.120;11.562;2022-10-31T03:22:31;10.90;92.80
23499;DHT22;11926;48.120;11.562;2022-10-31T03:25:21;10.90;92.90
23499;DHT22;11926;48.120;11.562;2022-10-31T03:28:16;10.90;92.90
23499;DHT22;11926;48.120;11.562;2022-10-31T03:31:05;10.80;92.90
23499;DHT22;11926;48.120;11.562;2022-10-31T03:33:57;10.80;92.90
23499;DHT22;11926;48.120;11.562;2022-10-31T03:36:50;10.80;92.90
23499;DHT22;11926;48.120;11.562;2022-10-31T03:39:41;10.80;93.00
23499;DHT22;11926;48.120;11.562;2022-10-31T03:42:34;10.80;93.00
23499;DHT22;11926;48.120;11.562;2022-10-31T03:45:24;10.80;93.00
23499;DHT22;11926;48.120;11.562;2022-10-31T03:48:13;10.80;93.00
23499;DHT22;11926;48.120;11.562;2022-10-31T03:51:07;10.80;93.00
23499;DHT22;11926;48.120;11.562;2022-10-31T03:54:02;10.80;93.00
23499;DHT22;11926;48.120;11.562;2022-10-31T03:56:53;10.70;93.00
23499;DHT22;11926;48.120;11.562;2022-10-31T03:59:46;10.70;93.00
23499;DHT22;11926;48.120;11.562;2022-10-31T04:02:38;10.70;93.00
23499;DHT22;11926;48.120;11.562;2022-10-31T04:05:29;10.70;93.00
23499;DHT22;11926;48.120;11.562;2022-10-31T04:08:23;10.60;93.00
23499;DHT22;11926;48.120;11.562;2022-10-31T04:11:14;10.60;93.00
23499;DHT22;11926;48.120;11.562;2022-10-31T04:14:06;10.60;93.00
23499;DHT22;11926;48.120;11.562;2022-10-31T04:16:57;10.60;93.00
23499;DHT22;11926;48.120;11.562;2022-10-31T04:19:52;10.60;93.10
23499;DHT22;11926;48.120;11.562;2022-10-31T04:22:39;10.50;93.10
23499;DHT22;11926;48.120;11.562;2022-10-31T04:25:27;10.50;93.20
23499;DHT22;11926;48.120;11.562;2022-10-31T04:28:16;10.50;93.30
23499;DHT22;11926;48.120;11.562;2022-10-31T04:31:04;10.40;93.30
23499;DHT22;11926;48.120;11.562;2022-10-31T04:33:56;10.40;93.30
23499;DHT22;11926;48.120;11.562;2022-10-31T04:36:43;10.40;93.40
23499;DHT22;11926;48.120;11.562;2022-10-31T04:39:33;10.30;93.40
23499;DHT22;11926;48.120;11.562;2022-10-31T04:42:40;10.30;93.40
23499;DHT22;11926;48.120;11.562;2022-10-31T04:45:28;10.30;93.40
23499;DHT22;11926;48.120;11.562;2022-10-31T04:48:15;10.30;93.50
23499;DHT22;11926;48.120;11.562;2022-10-31T04:51:04;10.30;93.40
23499;DHT22;11926;48.120;11.562;2022-10-31T04:53:52;10.30;93.40
23499;DHT22;11926;48.120;11.562;2022-10-31T04:56:46;10.30;93.40
23499;DHT22;11926;48.120;11.562;2022-10-31T04:59:39;10.30;93.40
23499;DHT22;11926;48.120;11.562;2022-10-31T05:02:28;10.30;93.80
23499;DHT22;11926;48.120;11.562;2022-10-31T05:05:19;10.30;93.50
23499;DHT22;11926;48.120;11.562;2022-10-31T05:08:08;10.30;93.40
23499;DHT22;11926;48.120;11.562;2022-10-31T05:10:59;10.30;93.40
23499;DHT22;11926;48.120;11.562;2022-10-31T05:13:50;10.30;93.40
23499;DHT22;11926;48.120;11.562;2022-10-31T05:16:57;10.20;93.30
23499;DHT22;11926;48.120;11.562;2022-10-31T05:20:04;10.20;93.30
23499;DHT22;11926;48.120;11.562;2022-10-31T05:23:12;10.20;93.30
23499;DHT22;11926;48.120;11.562;2022-10-31T05:25:59;10.20;93.40
23499;DHT22;11926;48.120;11.562;2022-10-31T05:28:46;10.20;93.40
23499;DHT22;11926;48.120;11.562;2022-10-31T05:31:33;10.20;93.30
23499;DHT22;11926;48.120;11.562;2022-10-31T05:34:23;10.20;93.30
23499;DHT22;11926;48.120;11.562;2022-10-31T05:37:30;10.10;93.40
23499;DHT22;11926;48.120;11.562;2022-10-31T05:40:20;10.10;93.40
23499;DHT22;11926;48.120;11.562;2022-10-31T05:43:07;10.10;93.40
23499;DHT22;11926;48.120;11.562;2022-10-31T05:45:55;10.10;93.40
23499;DHT22;11926;48.120;11.562;2022-10-31T05:49:02;10.10;93.40
23499;DHT22;11926;48.120;11.562;2022-10-31T05:52:09;10.00;93.40
23499;DHT22;11926;48.120;11.562;2022-10-31T05:54:57;10.00;93.40
23499;DHT22;11926;48.120;11.562;2022-10-31T05:57:45;10.00;93.40
23499;DHT22;11926;48.120;11.562;2022-10-31T06:00:32;10.00;93.40
23499;DHT22;11926;48.120;11.562;2022-10-31T06:03:25;10.00;93.60
23499;DHT22;11926;48.120;11.562;2022-10-31T06:06:14;10.00;93.90
23499;DHT22;11926;48.120;11.562;2022-10-31T06:09:01;10.00;93.90
23499;DHT22;11926;48.120;11.562;2022-10-31T06:11:56;10.00;93.80
23499;DHT22;11926;48.120;11.562;2022-10-31T06:14:44;10.00;93.90
23499;DHT22;11926;48.120;11.562;2022-10-31T06:17:32;10.00;93.90
23499;DHT22;11926;48.120;11.562;2022-10-31T06:20:39;10.00;93.90
23499;DHT22;11926;48.120;11.562;2022-10-31T06:23:26;10.00;93.90
23499;DHT22;11926;48.120;11.562;2022-10-31T06:26:34;10.00;93.90
23499;DHT22;11926;48.120;11.562;2022-10-31T06:29:21;10.00;93.90
23499;DHT22;11926;48.120;11.562;2022-10-31T06:32:20;10.10;93.90
23499;DHT22;11926;48.120;11.562;2022-10-31T06:35:07;10.10;93.90
23499;DHT22;11926;48.120;11.562;2022-10-31T06:37:55;10.10;93.90
23499;DHT22;11926;48.120;11.562;2022-10-31T06:41:03;10.10;94.00
23499;DHT22;11926;48.120;11.562;2022-10-31T06:44:02;10.10;94.00
23499;DHT22;11926;48.120;11.562;2022-10-31T06:47:13;10.10;94.00
23499;DHT22;11926;48.120;11.562;2022-10-31T06:50:15;10.10;94.00
23499;DHT22;11926;48.120;11.562;2022-10-31T06:53:04;10.10;94.10
23499;DHT22;11926;48.120;11.562;2022-10-31T06:55:51;10.10;94.10
23499;DHT22;11926;48.120;11.562;2022-10-31T06:58:41;10.10;94.10
23499;DHT22;11926;48.120;11.562;2022-10-31T07:01:29;10.10;94.10
23499;DHT22;11926;48.120;11.562;2022-10-31T07:04:17;10.20;94.20
23499;DHT22;11926;48.120;11.562;2022-10-31T07:07:07;10.20;94.20
23499;DHT22;11926;48.120;11.562;2022-10-31T07:09:55;10.20;94.30
23499;DHT22;11926;48.120;11.562;2022-10-31T07:13:01;10.30;94.40
23499;DHT22;11926;48.120;11.562;2022-10-31T07:15:52;10.30;94.40
23499;DHT22;11926;48.120;11.562;2022-10-31T07:18:40;10.30;94.50
23499;DHT22;11926;48.120;11.562;2022-10-31T07:21:29;10.30;94.50
23499;DHT22;11926;48.120;11.562;2022-10-31T07:24:20;10.40;94.60
23499;DHT22;11926;48.120;11.562;2022-10-31T07:27:27;10.40;94.60
23499;DHT22;11926;48.120;11.562;2022-10-31T07:30:14;10.50;94.60
23499;DHT22;11926;48.120;11.562;2022-10-31T07:33:08;10.50;94.60
23499;DHT22;11926;48.120;11.562;2022-10-31T07:36:15;10.50;94.70
23499;DHT22;11926;48.120;11.562;2022-10-31T07:39:04;10.60;94.80
23499;DHT22;11926;48.120;11.562;2022-10-31T07:41:58;10.70;94.80
23499;DHT22;11926;48.120;11.562;2022-10-31T07:44:45;10.80;94.90
23499;DHT22;11926;48.120;11.562;2022-10-31T07:47:55;10.90;95.00
23499;DHT22;11926;48.120;11.562;2022-10-31T07:51:01;11.00;95.00
23499;DHT22;11926;48.120;11.562;2022-10-31T07:53:51;11.00;94.90
23499;DHT22;11926;48.120;11.562;2022-10-31T07:56:41;11.10;94.90
23499;DHT22;11926;48.120;11.562;2022-10-31T07:59:30;11.20;95.00
23499;DHT22;11926;48.120;11.562;2022-10-31T08:02:18;11.30;95.10
23499;DHT22;11926;48.120;11.562;2022-10-31T08:05:25;11.50;95.10
23499;DHT22;11926;48.120;11.562;2022-10-31T08:08:32;11.60;95.00
23499;DHT22;11926;48.120;11.562;2022-10-31T08:11:25;11.80;94.90
23499;DHT22;11926;48.120;11.562;2022-10-31T08:14:13;11.80;94.80
23499;DHT22;11926;48.120;11.562;2022-10-31T08:17:01;11.90;94.80
23499;DHT22;11926;48.120;11.562;2022-10-31T08:19:58;12.00;94.80
23499;DHT22;11926;48.120;11.562;2022-10-31T08:22:55;12.10;94.80
23499;DHT22;11926;48.120;11.562;2022-10-31T08:25:44;12.30;94.90
23499;DHT22;11926;48.120;11.562;2022-10-31T08:28:33;12.50;94.80
23499;DHT22;11926;48.120;11.562;2022-10-31T08:31:21;12.70;94.60
23499;DHT22;11926;48.120;11.562;2022-10-31T08:34:40;12.90;94.30
23499;DHT22;11926;48.120;11.562;2022-10-31T08:37:52;13.00;94.30
23499;DHT22;11926;48.120;11.562;2022-10-31T08:40:40;13.20;94.20
23499;DHT22;11926;48.120;11.562;2022-10-31T08:43:27;13.20;94.10
23499;DHT22;11926;48.120;11.562;2022-10-31T08:46:14;13.30;94.20
23499;DHT22;11926;48.120;11.562;2022-10-31T08:49:03;13.40;94.20
23499;DHT22;11926;48.120;11.562;2022-10-31T08:51:52;13.50;94.30
23499;DHT22;11926;48.120;11.562;2022-10-31T08:54:39;13.60;94.50
23499;DHT22;11926;48.120;11.562;2022-10-31T08:57:46;13.70;94.50
23499;DHT22;11926;48.120;11.562;2022-10-31T09:00:34;13.80;94.50
23499;DHT22;11926;48.120;11.562;2022-10-31T09:03:26;13.90;94.40
23499;DHT22;11926;48.120;11.562;2022-10-31T09:06:13;14.00;94.50
23499;DHT22;11926;48.120;11.562;2022-10-31T09:09:02;14.20;94.20
23499;DHT22;11926;48.120;11.562;2022-10-31T09:11:50;14.30;94.20
23499;DHT22;11926;48.120;11.562;2022-10-31T09:14:57;14.50;94.00
23499;DHT22;11926;48.120;11.562;2022-10-31T09:17:56;14.70;94.00
23499;DHT22;11926;48.120;11.562;2022-10-31T09:20:49;14.80;93.70
23499;DHT22;11926;48.120;11.562;2022-10-31T09:23:37;15.00;93.50
23499;DHT22;11926;48.120;11.562;2022-10-31T09:26:25;15.20;93.30
23499;DHT22;11926;48.120;11.562;2022-10-31T09:29:16;15.40;93.00
23499;DHT22;11926;48.120;11.562;2022-10-31T09:32:09;15.60;92.80
23499;DHT22;11926;48.120;11.562;2022-10-31T09:35:03;15.70;93.00
23499;DHT22;11926;48.120;11.562;2022-10-31T09:37:54;15.90;92.90
23499;DHT22;11926;48.120;11.562;2022-10-31T09:40:44;16.00;92.90
23499;DHT22;11926;48.120;11.562;2022-10-31T09:43:47;16.10;92.30
23499;DHT22;11926;48.120;11.562;2022-10-31T09:46:43;16.20;92.00
23499;DHT22;11926;48.120;11.562;2022-10-31T09:49:43;16.30;91.90
23499;DHT22;11926;48.120;11.562;2022-10-31T09:52:35;16.40;91.60
23499;DHT22;11926;48.120;11.562;2022-10-31T09:55:31;16.50;91.30
23499;DHT22;11926;48.120;11.562;2022-10-31T09:58:23;16.60;90.90
23499;DHT22;11926;48.120;11.562;2022-10-31T10:01:28;16.70;90.60
23499;DHT22;11926;48.120;11.562;2022-10-31T10:04:29;16.80;90.80
23499;DHT22;11926;48.120;11.562;2022-10-31T10:07:32;17.00;90.10
23499;DHT22;11926;48.120;11.562;2022-10-31T10:10:49;17.10;89.30
23499;DHT22;11926;48.120;11.562;2022-10-31T10:13:47;17.30;88.60
23499;DHT22;11926;48.120;11.562;2022-10-31T10:17:16;17.50;87.40
23499;DHT22;11926;48.120;11.562;2022-10-31T10:20:20;17.60;86.80
23499;DHT22;11926;48.120;11.562;2022-10-31T10:23:22;17.80;85.70
23499;DHT22;11926;48.120;11.562;2022-10-31T10:26:17;18.00;84.90
23499;DHT22;11926;48.120;11.562;2022-10-31T10:29:25;18.20;83.60
23499;DHT22;11926;48.120;11.562;2022-10-31T10:32:22;18.40;82.30
23499;DHT22;11926;48.120;11.562;2022-10-31T10:35:17;18.50;82.00
23499;DHT22;11926;48.120;11.562;2022-10-31T10:38:14;18.70;82.20
23499;DHT22;11926;48.120;11.562;2022-10-31T10:41:06;18.80;81.60
23499;DHT22;11926;48.120;11.562;2022-10-31T10:43:57;18.90;80.30
23499;DHT22;11926;48.120;11.562;2022-10-31T10:46:50;19.00;80.70
23499;DHT22;11926;48.120;11.562;2022-10-31T10:49:53;19.10;81.20
23499;DHT22;11926;48.120;11.562;2022-10-31T10:52:48;19.30;80.10
23499;DHT22;11926;48.120;11.562;2022-10-31T10:55:40;19.40;78.70
23499;DHT22;11926;48.120;11.562;2022-10-31T10:58:32;19.50;78.30
23499;DHT22;11926;48.120;11.562;2022-10-31T11:01:21;19.50;77.20
23499;DHT22;11926;48.120;11.562;2022-10-31T11:04:30;19.60;76.50
23499;DHT22;11926;48.120;11.562;2022-10-31T11:07:19;19.70;76.00
23499;DHT22;11926;48.120;11.562;2022-10-31T11:10:12;19.70;75.10
23499;DHT22;11926;48.120;11.562;2022-10-31T11:13:17;19.80;74.70
23499;DHT22;11926;48.120;11.562;2022-10-31T11:16:08;19.80;73.50
23499;DHT22;11926;48.120;11.562;2022-10-31T11:19:08;19.80;72.30
23499;DHT22;11926;48.120;11.562;2022-10-31T11:22:06;19.80;71.70
23499;DHT22;11926;48.120;11.562;2022-10-31T11:27:43;20.00;69.60
23499;DHT22;11926;48.120;11.562;2022-10-31T11:30:42;20.10;70.30
23499;DHT22;11926;48.120;11.562;2022-10-31T11:33:32;20.20;69.10
23499;DHT22;11926;48.120;11.562;2022-10-31T11:36:23;20.30;69.00
23499;DHT22;11926;48.120;11.562;2022-10-31T11:39:17;20.40;69.00
23499;DHT22;11926;48.120;11.562;2022-10-31T11:42:07;20.50;68.20
23499;DHT22;11926;48.120;11.562;2022-10-31T11:44:55;20.50;67.40
23499;DHT22;11926;48.120;11.562;2022-10-31T11:47:49;20.60;67.30
23499;DHT22;11926;48.120;11.562;2022-10-31T11:50:50;20.60;66.60
23499;DHT22;11926;48.120;11.562;2022-10-31T11:53:37;20.70;67.00
23499;DHT22;11926;48.120;11.562;2022-10-31T11:56:24;20.60;67.30
23499;DHT22;11926;48.120;11.562;2022-10-31T11:59:21;20.70;66.00
23499;DHT22;11926;48.120;11.562;2022-10-31T12:02:17;20.70;65.50
23499;DHT22;11926;48.120;11.562;2022-10-31T12:05:18;20.70;65.30
23499;DHT22;11926;48.120;11.562;2022-10-31T12:08:08;20.70;65.60
23499;DHT22;11926;48.120;11.562;2022-10-31T12:11:01;20.80;65.40
23499;DHT22;11926;48.120;11.562;2022-10-31T12:14:03;20.80;65.50
23499;DHT22;11926;48.120;11.562;2022-10-31T12:17:03;20.80;65.00
23499;DHT22;11926;48.120;11.562;2022-10-31T12:20:00;20.80;65.00
23499;DHT22;11926;48.120;11.562;2022-10-31T12:22:58;20.80;65.00
23499;DHT22;11926;48.120;11.562;2022-10-31T12:25:54;20.70;65.30
23499;DHT22;11926;48.120;11.562;2022-10-31T12:28:54;20.70;65.30
23499;DHT22;11926;48.120;11.562;2022-10-31T12:31:56;20.70;65.30
23499;DHT22;11926;48.120;11.562;2022-10-31T12:34:56;20.70;65.60
23499;DHT22;11926;48.120;11.562;2022-10-31T12:37:54;20.70;65.40
23499;DHT22;11926;48.120;11.562;2022-10-31T12:40:59;20.70;65.50
23499;DHT22;11926;48.120;11.562;2022-10-31T12:43:58;20.70;65.60
23499;DHT22;11926;48.120;11.562;2022-10-31T12:46:59;20.80;66.40
23499;DHT22;11926;48.120;11.562;2022-10-31T12:49:57;20.90;66.30
23499;DHT22;11926;48.120;11.562;2022-10-31T12:52:56;20.90;66.20
23499;DHT22;11926;48.120;11.562;2022-10-31T12:55:58;20.90;67.00
23499;DHT22;11926;48.120;11.562;2022-10-31T12:58:53;20.90;66.10
23499;DHT22;11926;48.120;11.562;2022-10-31T13:01:47;20.90;66.30
23499;DHT22;11926;48.120;11.562;2022-10-31T13:04:42;20.90;66.20
23499;DHT22;11926;48.120;11.562;2022-10-31T13:07:34;20.90;66.20
23499;DHT22;11926;48.120;11.562;2022-10-31T13:10:24;20.90;66.20
23499;DHT22;11926;48.120;11.562;2022-10-31T13:13:16;20.90;66.50
23499;DHT22;11926;48.120;11.562;2022-10-31T13:16:13;20.90;66.60
23499;DHT22;11926;48.120;11.562;2022-10-31T13:19:04;20.90;66.60
23499;DHT22;11926;48.120;11.562;2022-10-31T13:22:04;20.90;67.00
23499;DHT22;11926;48.120;11.562;2022-10-31T13:24:58;20.90;66.90
23499;DHT22;11926;48.120;11.562;2022-10-31T13:27:48;20.90;66.60
23499;DHT22;11926;48.120;11.562;2022-10-31T13:30:39;20.90;66.60
23499;DHT22;11926;48.120;11.562;2022-10-31T13:33:31;20.90;67.00
23499;DHT22;11926;48.120;11.562;2022-10-31T13:36:26;20.90;67.00
23499;DHT22;11926;48.120;11.562;2022-10-31T13:39:23;20.90;67.00
23499;DHT22;11926;48.120;11.562;2022-10-31T13:42:20;20.90;67.00
23499;DHT22;11926;48.120;11.562;2022-10-31T13:45:14;21.00;67.40
23499;DHT22;11926;48.120;11.562;2022-10-31T13:48:19;20.90;67.60
23499;DHT22;11926;48.120;11.562;2022-10-31T13:51:25;20.90;67.70
23499;DHT22;11926;48.120;11.562;2022-10-31T13:54:29;20.90;67.80
23499;DHT22;11926;48.120;11.562;2022-10-31T13:57:22;20.90;67.90
23499;DHT22;11926;48.120;11.562;2022-10-31T14:00:24;20.90;69.00
23499;DHT22;11926;48.120;11.562;2022-10-31T14:03:19;20.90;69.10
23499;DHT22;11926;48.120;11.562;2022-10-31T14:06:43;21.00;69.40
23499;DHT22;11926;48.120;11.562;2022-10-31T14:09:36;20.90;68.80
23499;DHT22;11926;48.120;11.562;2022-10-31T14:12:27;20.90;69.20
23499;DHT22;11926;48.120;11.562;2022-10-31T14:15:17;21.00;69.10
23499;DHT22;11926;48.120;11.562;2022-10-31T14:18:07;21.20;68.30
23499;DHT22;11926;48.120;11.562;2022-10-31T14:21:16;21.50;68.10
23499;DHT22;11926;48.120;11.562;2022-10-31T14:24:15;21.80;67.30
23499;DHT22;11926;48.120;11.562;2022-10-31T14:27:32;22.20;66.60
23499;DHT22;11926;48.120;11.562;2022-10-31T14:30:22;22.40;65.70
23499;DHT22;11926;48.120;11.562;2022-10-31T14:33:15;22.50;65.00
23499;DHT22;11926;48.120;11.562;2022-10-31T14:36:08;22.40;65.10
23499;DHT22;11926;48.120;11.562;2022-10-31T14:39:10;22.20;65.10
23499;DHT22;11926;48.120;11.562;2022-10-31T14:42:14;22.00;66.00
23499;DHT22;11926;48.120;11.562;2022-10-31T14:45:17;21.90;67.00
23499;DHT22;11926;48.120;11.562;2022-10-31T14:48:27;21.70;67.00
23499;DHT22;11926;48.120;11.562;2022-10-31T14:51:17;21.70;67.70
23499;DHT22;11926;48.120;11.562;2022-10-31T14:54:07;21.70;67.50
23499;DHT22;11926;48.120;11.562;2022-10-31T14:57:04;21.80;67.50
23499;DHT22;11926;48.120;11.562;2022-10-31T14:59:53;21.90;67.10
23499;DHT22;11926;48.120;11.562;2022-10-31T15:02:58;21.90;67.00
23499;DHT22;11926;48.120;11.562;2022-10-31T15:05:51;21.80;67.10
23499;DHT22;11926;48.120;11.562;2022-10-31T15:08:47;21.70;67.50
23499;DHT22;11926;48.120;11.562;2022-10-31T15:11:37;21.60;68.30
23499;DHT22;11926;48.120;11.562;2022-10-31T15:14:28;21.70;68.80
23499;DHT22;11926;48.120;11.562;2022-10-31T15:17:16;21.90;69.00
23499;DHT22;11926;48.120;11.562;2022-10-31T15:20:04;21.90;69.00
23499;DHT22;11926;48.120;11.562;2022-10-31T15:22:51;22.10;69.20
23499;DHT22;11926;48.120;11.562;2022-10-31T15:25:38;22.10;70.50
23499;DHT22;11926;48.120;11.562;2022-10-31T15:28:26;22.00;70.30
23499;DHT22;11926;48.120;11.562;2022-10-31T15:31:16;21.90;71.10
23499;DHT22;11926;48.120;11.562;2022-10-31T15:34:06;21.70;72.20
23499;DHT22;11926;48.120;11.562;2022-10-31T15:36:54;21.60;73.30
23499;DHT22;11926;48.120;11.562;2022-10-31T15:39:42;21.40;74.20
23499;DHT22;11926;48.120;11.562;2022-10-31T15:42:39;21.20;75.00
23499;DHT22;11926;48.120;11.562;2022-10-31T15:45:27;21.10;75.60
23499;DHT22;11926;48.120;11.562;2022-10-31T15:48:19;21.00;76.40
23499;DHT22;11926;48.120;11.562;2022-10-31T15:51:09;20.90;77.10
23499;DHT22;11926;48.120;11.562;2022-10-31T15:53:56;20.80;77.60
23499;DHT22;11926;48.120;11.562;2022-10-31T15:56:45;20.70;78.20
23499;DHT22;11926;48.120;11.562;2022-10-31T15:59:33;20.60;78.50
23499;DHT22;11926;48.120;11.562;2022-10-31T16:02:22;20.50;78.90
23499;DHT22;11926;48.120;11.562;2022-10-31T16:05:17;20.40;79.50
23499;DHT22;11926;48.120;11.562;2022-10-31T16:08:24;20.30;79.90
23499;DHT22;11926;48.120;11.562;2022-10-31T16:11:17;20.20;80.40
23499;DHT22;11926;48.120;11.562;2022-10-31T16:14:17;20.10;80.90
23499;DHT22;11926;48.120;11.562;2022-10-31T16:17:13;20.00;81.10
23499;DHT22;11926;48.120;11.562;2022-10-31T16:20:02;19.90;81.20
23499;DHT22;11926;48.120;11.562;2022-10-31T16:22:53;19.80;81.50
23499;DHT22;11926;48.120;11.562;2022-10-31T16:25:41;19.70;82.00
23499;DHT22;11926;48.120;11.562;2022-10-31T16:28:28;19.60;81.90
23499;DHT22;11926;48.120;11.562;2022-10-31T16:31:29;19.50;82.10
23499;DHT22;11926;48.120;11.562;2022-10-31T16:34:20;19.40;82.10
23499;DHT22;11926;48.120;11.562;2022-10-31T16:37:11;19.30;82.20
23499;DHT22;11926;48.120;11.562;2022-10-31T16:40:00;19.20;82.40
23499;DHT22;11926;48.120;11.562;2022-10-31T16:42:47;19.00;82.50
23499;DHT22;11926;48.120;11.562;2022-10-31T16:45:35;18.90;82.80
23499;DHT22;11926;48.120;11.562;2022-10-31T16:48:22;18.80;82.90
23499;DHT22;11926;48.120;11.562;2022-10-31T16:51:10;18.70;83.00
23499;DHT22;11926;48.120;11.562;2022-10-31T16:53:57;18.60;83.10
23499;DHT22;11926;48.120;11.562;2022-10-31T16:56:45;18.50;83.10
23499;DHT22;11926;48.120;11.562;2022-10-31T16:59:33;18.40;83.30
23499;DHT22;11926;48.120;11.562;2022-10-31T17:02:21;18.30;83.40
23499;DHT22;11926;48.120;11.562;2022-10-31T17:05:11;18.20;83.60
23499;DHT22;11926;48.120;11.562;2022-10-31T17:07:59;18.10;83.50
23499;DHT22;11926;48.120;11.562;2022-10-31T17:10:47;18.00;83.90
23499;DHT22;11926;48.120;11.562;2022-10-31T17:13:38;17.90;84.20
23499;DHT22;11926;48.120;11.562;2022-10-31T17:16:25;17.80;84.40
23499;DHT22;11926;48.120;11.562;2022-10-31T17:19:13;17.70;84.80
23499;DHT22;11926;48.120;11.562;2022-10-31T17:22:01;17.60;84.80
23499;DHT22;11926;48.120;11.562;2022-10-31T17:24:48;17.50;84.90
23499;DHT22;11926;48.120;11.562;2022-10-31T17:27:35;17.40;85.30
23499;DHT22;11926;48.120;11.562;2022-10-31T17:30:24;17.30;85.70
23499;DHT22;11926;48.120;11.562;2022-10-31T17:33:13;17.20;85.70
23499;DHT22;11926;48.120;11.562;2022-10-31T17:36:02;17.10;85.90
23499;DHT22;11926;48.120;11.562;2022-10-31T17:38:49;17.00;86.10
23499;DHT22;11926;48.120;11.562;2022-10-31T17:41:36;17.00;86.20
23499;DHT22;11926;48.120;11.562;2022-10-31T17:44:23;16.90;86.20
23499;DHT22;11926;48.120;11.562;2022-10-31T17:47:12;16.80;86.00
23499;DHT22;11926;48.120;11.562;2022-10-31T17:49:59;16.70;86.10
23499;DHT22;11926;48.120;11.562;2022-10-31T17:52:46;16.70;86.30
23499;DHT22;11926;48.120;11.562;2022-10-31T17:55:34;16.60;86.30
23499;DHT22;11926;48.120;11.562;2022-10-31T17:58:22;16.50;86.30